sensor_id;sensor_type;location;lat;lon;timestamp;P1;durP1;ratioP1;P2;durP2;ratioP2
1336;SDS011;662;48.814;9.318;2022-09-09T00:00:25;2.60;;;2.23;;
1336;SDS011;662;48.814;9.318;2022-09-09T00:03:02;3.80;;;2.70;;
1336;SDS011;662;48.814;9.318;2022-09-09T00:08:20;3.13;;;2.07;;
1336;SDS011;662;48.814;9.318;2022-09-09T00:10:58;3.53;;;1.90;;
1336;SDS011;662;48.814;9.318;2022-09-09T00:16:09;3.50;;;1.90;;
1336;SDS011;662;48.814;9.318;2022-09-09T00:18:51;3.83;;;2.13;;
1336;SDS011;662;48.814;9.318;2022-09-09T00:21:31;3.17;;;2.20;;
1336;SDS011;662;48.814;9.318;2022-09-09T00:30:30;3.13;;;2.20;;
1336;SDS011;662;48.814;9.318;2022-09-09T00:32:36;3.23;;;2.67;;
1336;SDS011;662;48.814;9.318;2022-09-09T00:35:04;3.67;;;2.47;;
1336;SDS011;662;48.814;9.318;2022-09-09T00:37:37;3.70;;;2.30;;
1336;SDS011;662;48.814;9.318;2022-09-09T00:40:07;3.63;;;2.30;;
1336;SDS011;662;48.814;9.318;2022-09-09T00:42:43;3.90;;;2.10;;
1336;SDS011;662;48.814;9.318;2022-09-09T00:47:50;2.97;;;1.90;;
1336;SDS011;662;48.814;9.318;2022-09-09T00:55:41;4.03;;;2.63;;
1336;SDS011;662;48.814;9.318;2022-09-09T00:58:10;4.13;;;2.20;;
1336;SDS011;662;48.814;9.318;2022-09-09T01:00:42;3.40;;;2.37;;
1336;SDS011;662;48.814;9.318;2022-09-09T01:11:01;3.00;;;2.00;;
1336;SDS011;662;48.814;9.318;2022-09-09T01:13:30;3.03;;;1.67;;
1336;SDS011;662;48.814;9.318;2022-09-09T01:15:59;2.93;;;1.80;;
1336;SDS011;662;48.814;9.318;2022-09-09T01:18:35;4.63;;;1.80;;
1336;SDS011;662;48.814;9.318;2022-09-09T01:21:13;2.13;;;1.93;;
1336;SDS011;662;48.814;9.318;2022-09-09T01:26:33;2.43;;;2.23;;
1336;SDS011;662;48.814;9.318;2022-09-09T01:29:02;4.93;;;2.10;;
1336;SDS011;662;48.814;9.318;2022-09-09T01:31:38;2.13;;;1.90;;
1336;SDS011;662;48.814;9.318;2022-09-09T01:34:21;5.23;;;2.30;;
1336;SDS011;662;48.814;9.318;2022-09-09T01:36:50;3.03;;;1.87;;
1336;SDS011;662;48.814;9.318;2022-09-09T01:39:27;2.83;;;2.03;;
1336;SDS011;662;48.814;9.318;2022-09-09T01:41:53;3.00;;;1.60;;
1336;SDS011;662;48.814;9.318;2022-09-09T01:44:20;2.57;;;1.90;;
1336;SDS011;662;48.814;9.318;2022-09-09T01:46:47;3.47;;;1.83;;
1336;SDS011;662;48.814;9.318;2022-09-09T01:49:12;4.63;;;2.30;;
1336;SDS011;662;48.814;9.318;2022-09-09T01:51:38;3.40;;;1.80;;
1336;SDS011;662;48.814;9.318;2022-09-09T01:54:06;2.23;;;1.70;;
1336;SDS011;662;48.814;9.318;2022-09-09T02:10:10;8.73;;;2.43;;
1336;SDS011;662;48.814;9.318;2022-09-09T02:12:55;4.03;;;1.97;;
1336;SDS011;662;48.814;9.318;2022-09-09T02:18:17;3.63;;;2.07;;
1336;SDS011;662;48.814;9.318;2022-09-09T02:20:49;2.77;;;1.70;;
1336;SDS011;662;48.814;9.318;2022-09-09T02:23:16;5.77;;;2.50;;
1336;SDS011;662;48.814;9.318;2022-09-09T02:25:42;4.13;;;1.90;;
1336;SDS011;662;48.814;9.318;2022-09-09T02:28:11;2.03;;;1.93;;
1336;SDS011;662;48.814;9.318;2022-09-09T02:30:40;2.70;;;1.70;;
1336;SDS011;662;48.814;9.318;2022-09-09T02:33:09;2.47;;;1.80;;
1336;SDS011;662;48.814;9.318;2022-09-09T02:35:37;2.60;;;2.10;;
1336;SDS011;662;48.814;9.318;2022-09-09T02:38:09;2.67;;;2.20;;
1336;SDS011;662;48.814;9.318;2022-09-09T02:40:37;2.03;;;1.77;;
1336;SDS011;662;48.814;9.318;2022-09-09T02:43:03;5.20;;;2.07;;
1336;SDS011;662;48.814;9.318;2022-09-09T02:45:34;3.93;;;2.20;;
1336;SDS011;662;48.814;9.318;2022-09-09T02:51:18;4.13;;;3.20;;
1336;SDS011;662;48.814;9.318;2022-09-09T02:54:11;3.40;;;2.40;;
1336;SDS011;662;48.814;9.318;2022-09-09T02:56:47;2.63;;;2.30;;
1336;SDS011;662;48.814;9.318;2022-09-09T02:59:18;5.30;;;2.77;;
1336;SDS011;662;48.814;9.318;2022-09-09T03:01:45;4.27;;;2.63;;
1336;SDS011;662;48.814;9.318;2022-09-09T03:04:10;3.00;;;1.80;;
1336;SDS011;662;48.814;9.318;2022-09-09T03:06:36;4.00;;;2.30;;
1336;SDS011;662;48.814;9.318;2022-09-09T03:09:02;5.33;;;2.27;;
1336;SDS011;662;48.814;9.318;2022-09-09T03:11:28;2.17;;;1.80;;
1336;SDS011;662;48.814;9.318;2022-09-09T03:13:54;3.10;;;1.80;;
1336;SDS011;662;48.814;9.318;2022-09-09T03:16:21;3.60;;;2.13;;
1336;SDS011;662;48.814;9.318;2022-09-09T03:18:47;5.43;;;2.50;;
1336;SDS011;662;48.814;9.318;2022-09-09T03:21:13;2.53;;;2.30;;
1336;SDS011;662;48.814;9.318;2022-09-09T03:23:39;5.20;;;2.50;;
1336;SDS011;662;48.814;9.318;2022-09-09T03:26:05;3.60;;;2.00;;
1336;SDS011;662;48.814;9.318;2022-09-09T03:28:30;3.97;;;2.37;;
1336;SDS011;662;48.814;9.318;2022-09-09T03:30:59;3.90;;;2.60;;
1336;SDS011;662;48.814;9.318;2022-09-09T03:33:26;3.00;;;1.90;;
1336;SDS011;662;48.814;9.318;2022-09-09T03:35:51;2.73;;;1.70;;
1336;SDS011;662;48.814;9.318;2022-09-09T03:38:18;3.83;;;2.30;;
1336;SDS011;662;48.814;9.318;2022-09-09T03:40:50;7.43;;;2.20;;
1336;SDS011;662;48.814;9.318;2022-09-09T03:43:20;3.40;;;1.87;;
1336;SDS011;662;48.814;9.318;2022-09-09T03:45:46;2.83;;;2.17;;
1336;SDS011;662;48.814;9.318;2022-09-09T03:48:13;4.93;;;1.90;;
1336;SDS011;662;48.814;9.318;2022-09-09T03:50:43;3.10;;;1.93;;
1336;SDS011;662;48.814;9.318;2022-09-09T03:53:13;3.80;;;2.33;;
1336;SDS011;662;48.814;9.318;2022-09-09T03:55:43;1.60;;;1.47;;
1336;SDS011;662;48.814;9.318;2022-09-09T03:58:13;2.03;;;1.67;;
1336;SDS011;662;48.814;9.318;2022-09-09T04:00:40;7.23;;;2.33;;
1336;SDS011;662;48.814;9.318;2022-09-09T04:03:11;3.00;;;2.03;;
1336;SDS011;662;48.814;9.318;2022-09-09T04:05:37;6.60;;;2.73;;
1336;SDS011;662;48.814;9.318;2022-09-09T04:08:08;3.50;;;2.00;;
1336;SDS011;662;48.814;9.318;2022-09-09T04:10:34;7.00;;;2.10;;
1336;SDS011;662;48.814;9.318;2022-09-09T04:13:02;2.97;;;1.90;;
1336;SDS011;662;48.814;9.318;2022-09-09T04:15:29;2.90;;;1.90;;
1336;SDS011;662;48.814;9.318;2022-09-09T04:17:55;3.43;;;2.00;;
1336;SDS011;662;48.814;9.318;2022-09-09T04:20:20;2.10;;;1.90;;
1336;SDS011;662;48.814;9.318;2022-09-09T04:22:47;3.43;;;1.90;;
1336;SDS011;662;48.814;9.318;2022-09-09T04:25:13;3.63;;;2.10;;
1336;SDS011;662;48.814;9.318;2022-09-09T04:27:39;2.60;;;2.00;;
1336;SDS011;662;48.814;9.318;2022-09-09T04:30:05;5.37;;;1.93;;
1336;SDS011;662;48.814;9.318;2022-09-09T04:32:35;3.07;;;2.77;;
1336;SDS011;662;48.814;9.318;2022-09-09T04:35:02;3.30;;;2.00;;
1336;SDS011;662;48.814;9.318;2022-09-09T04:37:28;5.70;;;2.07;;
1336;SDS011;662;48.814;9.318;2022-09-09T04:39:53;3.50;;;2.47;;
1336;SDS011;662;48.814;9.318;2022-09-09T04:42:19;3.53;;;2.33;;
1336;SDS011;662;48.814;9.318;2022-09-09T04:44:45;5.10;;;2.43;;
1336;SDS011;662;48.814;9.318;2022-09-09T04:47:11;3.77;;;2.00;;
1336;SDS011;662;48.814;9.318;2022-09-09T04:49:36;3.80;;;2.00;;
1336;SDS011;662;48.814;9.318;2022-09-09T04:52:03;2.83;;;1.80;;
1336;SDS011;662;48.814;9.318;2022-09-09T04:54:29;5.47;;;1.93;;
1336;SDS011;662;48.814;9.318;2022-09-09T04:56:55;4.93;;;2.00;;
1336;SDS011;662;48.814;9.318;2022-09-09T04:59:21;3.17;;;2.03;;
1336;SDS011;662;48.814;9.318;2022-09-09T05:01:47;2.30;;;1.80;;
1336;SDS011;662;48.814;9.318;2022-09-09T05:04:13;2.80;;;1.83;;
1336;SDS011;662;48.814;9.318;2022-09-09T05:06:41;3.17;;;1.97;;
1336;SDS011;662;48.814;9.318;2022-09-09T05:09:07;4.30;;;1.87;;
1336;SDS011;662;48.814;9.318;2022-09-09T05:11:33;5.30;;;1.90;;
1336;SDS011;662;48.814;9.318;2022-09-09T05:14:03;2.93;;;1.83;;
1336;SDS011;662;48.814;9.318;2022-09-09T05:16:29;2.90;;;1.90;;
1336;SDS011;662;48.814;9.318;2022-09-09T05:18:55;1.80;;;1.70;;
1336;SDS011;662;48.814;9.318;2022-09-09T05:21:22;2.00;;;1.80;;
1336;SDS011;662;48.814;9.318;2022-09-09T05:23:50;2.20;;;2.00;;
1336;SDS011;662;48.814;9.318;2022-09-09T05:26:19;2.57;;;1.90;;
1336;SDS011;662;48.814;9.318;2022-09-09T05:28:47;4.23;;;2.50;;
1336;SDS011;662;48.814;9.318;2022-09-09T05:31:13;6.27;;;2.87;;
1336;SDS011;662;48.814;9.318;2022-09-09T05:33:40;2.03;;;1.87;;
1336;SDS011;662;48.814;9.318;2022-09-09T05:36:08;5.30;;;2.13;;
1336;SDS011;662;48.814;9.318;2022-09-09T05:38:37;4.03;;;1.93;;
1336;SDS011;662;48.814;9.318;2022-09-09T05:41:04;3.17;;;2.27;;
1336;SDS011;662;48.814;9.318;2022-09-09T05:43:30;4.87;;;2.13;;
1336;SDS011;662;48.814;9.318;2022-09-09T05:46:09;3.23;;;2.00;;
1336;SDS011;662;48.814;9.318;2022-09-09T05:48:37;3.80;;;1.80;;
1336;SDS011;662;48.814;9.318;2022-09-09T05:51:05;4.07;;;1.90;;
1336;SDS011;662;48.814;9.318;2022-09-09T05:53:33;3.33;;;1.83;;
1336;SDS011;662;48.814;9.318;2022-09-09T05:56:09;5.07;;;1.60;;
1336;SDS011;662;48.814;9.318;2022-09-09T05:58:36;2.83;;;1.50;;
1336;SDS011;662;48.814;9.318;2022-09-09T06:01:04;6.60;;;2.67;;
1336;SDS011;662;48.814;9.318;2022-09-09T06:03:31;1.90;;;1.73;;
1336;SDS011;662;48.814;9.318;2022-09-09T06:05:59;3.83;;;2.10;;
1336;SDS011;662;48.814;9.318;2022-09-09T06:08:26;3.40;;;2.07;;
1336;SDS011;662;48.814;9.318;2022-09-09T06:10:52;3.47;;;1.90;;
1336;SDS011;662;48.814;9.318;2022-09-09T06:13:18;3.43;;;2.00;;
1336;SDS011;662;48.814;9.318;2022-09-09T06:15:52;4.70;;;2.10;;
1336;SDS011;662;48.814;9.318;2022-09-09T06:18:18;5.13;;;1.87;;
1336;SDS011;662;48.814;9.318;2022-09-09T06:20:54;2.77;;;1.90;;
1336;SDS011;662;48.814;9.318;2022-09-09T06:23:24;2.80;;;1.70;;
1336;SDS011;662;48.814;9.318;2022-09-09T06:25:50;3.07;;;1.80;;
1336;SDS011;662;48.814;9.318;2022-09-09T06:28:17;2.60;;;1.83;;
1336;SDS011;662;48.814;9.318;2022-09-09T06:30:43;2.50;;;1.60;;
1336;SDS011;662;48.814;9.318;2022-09-09T06:33:09;1.63;;;1.30;;
1336;SDS011;662;48.814;9.318;2022-09-09T06:35:35;2.03;;;1.57;;
1336;SDS011;662;48.814;9.318;2022-09-09T06:38:01;4.30;;;2.00;;
1336;SDS011;662;48.814;9.318;2022-09-09T06:40:26;5.13;;;1.40;;
1336;SDS011;662;48.814;9.318;2022-09-09T06:42:52;3.60;;;1.80;;
1336;SDS011;662;48.814;9.318;2022-09-09T06:45:18;2.40;;;1.83;;
1336;SDS011;662;48.814;9.318;2022-09-09T06:47:44;3.30;;;1.60;;
1336;SDS011;662;48.814;9.318;2022-09-09T06:50:10;6.40;;;1.60;;
1336;SDS011;662;48.814;9.318;2022-09-09T06:52:36;4.00;;;1.60;;
1336;SDS011;662;48.814;9.318;2022-09-09T06:55:01;3.40;;;1.80;;
1336;SDS011;662;48.814;9.318;2022-09-09T06:57:28;2.50;;;1.70;;
1336;SDS011;662;48.814;9.318;2022-09-09T06:59:53;3.33;;;1.97;;
1336;SDS011;662;48.814;9.318;2022-09-09T07:02:19;3.80;;;1.73;;
1336;SDS011;662;48.814;9.318;2022-09-09T07:04:45;4.97;;;2.07;;
1336;SDS011;662;48.814;9.318;2022-09-09T07:07:10;3.00;;;1.63;;
1336;SDS011;662;48.814;9.318;2022-09-09T07:09:38;3.10;;;1.57;;
1336;SDS011;662;48.814;9.318;2022-09-09T07:12:05;3.20;;;1.60;;
1336;SDS011;662;48.814;9.318;2022-09-09T07:14:31;1.83;;;1.40;;
1336;SDS011;662;48.814;9.318;2022-09-09T07:16:57;2.80;;;1.70;;
1336;SDS011;662;48.814;9.318;2022-09-09T07:19:23;4.47;;;1.80;;
1336;SDS011;662;48.814;9.318;2022-09-09T07:21:49;4.27;;;1.80;;
1336;SDS011;662;48.814;9.318;2022-09-09T07:24:15;3.00;;;1.80;;
1336;SDS011;662;48.814;9.318;2022-09-09T07:26:40;4.13;;;1.53;;
1336;SDS011;662;48.814;9.318;2022-09-09T07:29:06;3.03;;;1.60;;
1336;SDS011;662;48.814;9.318;2022-09-09T07:31:35;1.50;;;1.40;;
1336;SDS011;662;48.814;9.318;2022-09-09T07:34:02;1.73;;;1.37;;
1336;SDS011;662;48.814;9.318;2022-09-09T07:36:32;2.93;;;1.53;;
1336;SDS011;662;48.814;9.318;2022-09-09T07:39:00;4.60;;;1.60;;
1336;SDS011;662;48.814;9.318;2022-09-09T07:41:35;4.33;;;1.80;;
1336;SDS011;662;48.814;9.318;2022-09-09T07:44:10;2.30;;;1.37;;
1336;SDS011;662;48.814;9.318;2022-09-09T07:46:37;2.87;;;1.63;;
1336;SDS011;662;48.814;9.318;2022-09-09T07:49:06;2.83;;;1.40;;
1336;SDS011;662;48.814;9.318;2022-09-09T07:51:37;1.90;;;1.20;;
1336;SDS011;662;48.814;9.318;2022-09-09T07:54:06;4.90;;;1.63;;
1336;SDS011;662;48.814;9.318;2022-09-09T07:56:34;4.17;;;2.50;;
1336;SDS011;662;48.814;9.318;2022-09-09T07:59:02;3.83;;;2.03;;
1336;SDS011;662;48.814;9.318;2022-09-09T08:01:32;2.17;;;1.80;;
1336;SDS011;662;48.814;9.318;2022-09-09T08:04:06;1.90;;;1.43;;
1336;SDS011;662;48.814;9.318;2022-09-09T08:06:37;3.37;;;1.40;;
1336;SDS011;662;48.814;9.318;2022-09-09T08:09:04;1.77;;;1.40;;
1336;SDS011;662;48.814;9.318;2022-09-09T08:11:31;4.30;;;1.37;;
1336;SDS011;662;48.814;9.318;2022-09-09T08:13:58;2.90;;;1.87;;
1336;SDS011;662;48.814;9.318;2022-09-09T08:16:28;3.37;;;1.50;;
1336;SDS011;662;48.814;9.318;2022-09-09T08:18:56;1.20;;;1.10;;
1336;SDS011;662;48.814;9.318;2022-09-09T08:21:26;5.10;;;1.57;;
1336;SDS011;662;48.814;9.318;2022-09-09T08:23:53;5.00;;;2.20;;
1336;SDS011;662;48.814;9.318;2022-09-09T08:26:21;4.33;;;1.80;;
1336;SDS011;662;48.814;9.318;2022-09-09T08:28:49;1.40;;;1.30;;
1336;SDS011;662;48.814;9.318;2022-09-09T08:31:17;4.50;;;1.70;;
1336;SDS011;662;48.814;9.318;2022-09-09T08:33:44;4.70;;;1.90;;
1336;SDS011;662;48.814;9.318;2022-09-09T08:36:14;2.07;;;1.60;;
1336;SDS011;662;48.814;9.318;2022-09-09T08:38:41;2.90;;;1.57;;
1336;SDS011;662;48.814;9.318;2022-09-09T08:43:49;4.40;;;1.57;;
1336;SDS011;662;48.814;9.318;2022-09-09T08:46:44;8.30;;;1.57;;
1336;SDS011;662;48.814;9.318;2022-09-09T08:52:16;4.53;;;1.50;;
1336;SDS011;662;48.814;9.318;2022-09-09T08:54:47;3.80;;;1.70;;
1336;SDS011;662;48.814;9.318;2022-09-09T08:57:18;2.10;;;1.20;;
1336;SDS011;662;48.814;9.318;2022-09-09T08:59:50;4.03;;;1.60;;
1336;SDS011;662;48.814;9.318;2022-09-09T09:02:25;3.17;;;1.40;;
1336;SDS011;662;48.814;9.318;2022-09-09T09:05:11;4.50;;;1.27;;
1336;SDS011;662;48.814;9.318;2022-09-09T09:07:42;2.70;;;1.50;;
1336;SDS011;662;48.814;9.318;2022-09-09T09:12:47;4.73;;;1.20;;
1336;SDS011;662;48.814;9.318;2022-09-09T09:15:16;4.17;;;1.67;;
1336;SDS011;662;48.814;9.318;2022-09-09T09:17:46;3.80;;;1.43;;
1336;SDS011;662;48.814;9.318;2022-09-09T09:20:14;3.47;;;1.27;;
1336;SDS011;662;48.814;9.318;2022-09-09T09:22:51;4.07;;;1.10;;
1336;SDS011;662;48.814;9.318;2022-09-09T09:25:21;3.87;;;1.07;;
1336;SDS011;662;48.814;9.318;2022-09-09T09:30:55;5.50;;;1.33;;
1336;SDS011;662;48.814;9.318;2022-09-09T09:36:19;2.80;;;1.23;;
1336;SDS011;662;48.814;9.318;2022-09-09T09:38:56;1.50;;;1.00;;
1336;SDS011;662;48.814;9.318;2022-09-09T09:41:35;3.60;;;1.73;;
1336;SDS011;662;48.814;9.318;2022-09-09T09:44:03;2.40;;;1.23;;
1336;SDS011;662;48.814;9.318;2022-09-09T09:46:30;1.47;;;1.00;;
1336;SDS011;662;48.814;9.318;2022-09-09T09:49:00;1.90;;;0.90;;
1336;SDS011;662;48.814;9.318;2022-09-09T09:51:28;1.70;;;0.90;;
1336;SDS011;662;48.814;9.318;2022-09-09T09:56:52;1.93;;;0.77;;
1336;SDS011;662;48.814;9.318;2022-09-09T10:01:53;2.73;;;0.70;;
1336;SDS011;662;48.814;9.318;2022-09-09T10:04:20;2.37;;;0.63;;
1336;SDS011;662;48.814;9.318;2022-09-09T10:06:48;1.23;;;0.80;;
1336;SDS011;662;48.814;9.318;2022-09-09T10:09:28;1.17;;;0.63;;
1336;SDS011;662;48.814;9.318;2022-09-09T10:17:39;2.00;;;0.90;;
1336;SDS011;662;48.814;9.318;2022-09-09T10:20:40;2.93;;;0.90;;
1336;SDS011;662;48.814;9.318;2022-09-09T10:28:54;2.63;;;1.00;;
1336;SDS011;662;48.814;9.318;2022-09-09T10:37:37;1.33;;;0.87;;
1336;SDS011;662;48.814;9.318;2022-09-09T10:40:36;1.97;;;0.97;;
1336;SDS011;662;48.814;9.318;2022-09-09T10:43:17;3.40;;;1.23;;
1336;SDS011;662;48.814;9.318;2022-09-09T10:56:40;3.00;;;1.10;;
1336;SDS011;662;48.814;9.318;2022-09-09T10:59:12;1.80;;;1.40;;
1336;SDS011;662;48.814;9.318;2022-09-09T11:04:20;5.13;;;1.37;;
1336;SDS011;662;48.814;9.318;2022-09-09T11:06:52;2.97;;;1.30;;
1336;SDS011;662;48.814;9.318;2022-09-09T11:09:27;4.20;;;1.40;;
1336;SDS011;662;48.814;9.318;2022-09-09T11:12:02;6.83;;;1.90;;
1336;SDS011;662;48.814;9.318;2022-09-09T11:14:36;5.70;;;1.30;;
1336;SDS011;662;48.814;9.318;2022-09-09T11:17:10;3.47;;;1.17;;
1336;SDS011;662;48.814;9.318;2022-09-09T11:19:48;3.20;;;1.60;;
1336;SDS011;662;48.814;9.318;2022-09-09T11:22:27;2.00;;;1.10;;
1336;SDS011;662;48.814;9.318;2022-09-09T11:36:33;4.60;;;1.80;;
1336;SDS011;662;48.814;9.318;2022-09-09T11:44:39;4.67;;;2.03;;
1336;SDS011;662;48.814;9.318;2022-09-09T11:47:20;3.20;;;0.90;;
1336;SDS011;662;48.814;9.318;2022-09-09T11:49:54;1.20;;;1.00;;
1336;SDS011;662;48.814;9.318;2022-09-09T11:52:42;4.90;;;1.20;;
1336;SDS011;662;48.814;9.318;2022-09-09T11:55:32;2.03;;;1.17;;
1336;SDS011;662;48.814;9.318;2022-09-09T11:58:00;3.43;;;1.17;;
1336;SDS011;662;48.814;9.318;2022-09-09T12:00:49;3.73;;;1.10;;
1336;SDS011;662;48.814;9.318;2022-09-09T12:06:09;1.67;;;0.73;;
1336;SDS011;662;48.814;9.318;2022-09-09T12:08:53;2.90;;;0.83;;
1336;SDS011;662;48.814;9.318;2022-09-09T12:11:27;1.90;;;0.63;;
1336;SDS011;662;48.814;9.318;2022-09-09T12:13:55;5.17;;;1.93;;
1336;SDS011;662;48.814;9.318;2022-09-09T12:16:32;1.10;;;0.70;;
1336;SDS011;662;48.814;9.318;2022-09-09T12:19:23;8.00;;;1.17;;
1336;SDS011;662;48.814;9.318;2022-09-09T12:21:54;3.53;;;0.70;;
1336;SDS011;662;48.814;9.318;2022-09-09T12:24:40;1.90;;;0.50;;
1336;SDS011;662;48.814;9.318;2022-09-09T12:29:54;1.67;;;1.57;;
1336;SDS011;662;48.814;9.318;2022-09-09T12:32:35;0.60;;;0.40;;
1336;SDS011;662;48.814;9.318;2022-09-09T12:37:38;1.57;;;0.70;;
1336;SDS011;662;48.814;9.318;2022-09-09T12:40:15;1.20;;;0.60;;
1336;SDS011;662;48.814;9.318;2022-09-09T12:42:43;1.37;;;1.10;;
1336;SDS011;662;48.814;9.318;2022-09-09T12:45:19;2.20;;;0.60;;
1336;SDS011;662;48.814;9.318;2022-09-09T12:52:51;2.17;;;0.77;;
1336;SDS011;662;48.814;9.318;2022-09-09T12:55:24;1.43;;;0.70;;
1336;SDS011;662;48.814;9.318;2022-09-09T12:57:55;0.90;;;0.60;;
1336;SDS011;662;48.814;9.318;2022-09-09T13:00:23;1.60;;;0.63;;
1336;SDS011;662;48.814;9.318;2022-09-09T13:02:53;0.87;;;0.60;;
1336;SDS011;662;48.814;9.318;2022-09-09T13:05:23;2.70;;;1.10;;
1336;SDS011;662;48.814;9.318;2022-09-09T13:07:49;1.13;;;0.73;;
1336;SDS011;662;48.814;9.318;2022-09-09T13:10:20;1.50;;;0.70;;
1336;SDS011;662;48.814;9.318;2022-09-09T13:12:53;2.27;;;0.90;;
1336;SDS011;662;48.814;9.318;2022-09-09T13:15:24;2.10;;;1.03;;
1336;SDS011;662;48.814;9.318;2022-09-09T13:17:56;1.93;;;0.70;;
1336;SDS011;662;48.814;9.318;2022-09-09T13:20:25;2.07;;;1.00;;
1336;SDS011;662;48.814;9.318;2022-09-09T13:22:52;1.83;;;0.97;;
1336;SDS011;662;48.814;9.318;2022-09-09T13:25:21;2.00;;;0.60;;
1336;SDS011;662;48.814;9.318;2022-09-09T13:30:32;1.00;;;0.60;;
1336;SDS011;662;48.814;9.318;2022-09-09T13:33:02;3.33;;;0.80;;
1336;SDS011;662;48.814;9.318;2022-09-09T13:35:34;2.10;;;0.90;;
1336;SDS011;662;48.814;9.318;2022-09-09T13:38:12;2.10;;;1.10;;
1336;SDS011;662;48.814;9.318;2022-09-09T13:40:39;3.17;;;0.80;;
1336;SDS011;662;48.814;9.318;2022-09-09T13:43:10;1.67;;;0.80;;
1336;SDS011;662;48.814;9.318;2022-09-09T13:45:52;3.00;;;0.60;;
1336;SDS011;662;48.814;9.318;2022-09-09T13:48:26;1.43;;;0.70;;
1336;SDS011;662;48.814;9.318;2022-09-09T13:50:56;1.80;;;1.00;;
1336;SDS011;662;48.814;9.318;2022-09-09T13:53:24;2.30;;;0.60;;
1336;SDS011;662;48.814;9.318;2022-09-09T13:55:50;3.43;;;0.90;;
1336;SDS011;662;48.814;9.318;2022-09-09T13:58:17;2.20;;;0.80;;
1336;SDS011;662;48.814;9.318;2022-09-09T14:00:44;4.70;;;1.20;;
1336;SDS011;662;48.814;9.318;2022-09-09T14:03:10;1.37;;;0.83;;
1336;SDS011;662;48.814;9.318;2022-09-09T14:05:36;1.20;;;0.70;;
1336;SDS011;662;48.814;9.318;2022-09-09T14:08:03;1.77;;;0.80;;
1336;SDS011;662;48.814;9.318;2022-09-09T14:10:33;1.17;;;0.80;;
1336;SDS011;662;48.814;9.318;2022-09-09T14:13:02;2.83;;;0.60;;
1336;SDS011;662;48.814;9.318;2022-09-09T14:15:28;1.37;;;0.70;;
1336;SDS011;662;48.814;9.318;2022-09-09T14:17:54;1.50;;;0.80;;
1336;SDS011;662;48.814;9.318;2022-09-09T14:20:20;2.30;;;0.97;;
1336;SDS011;662;48.814;9.318;2022-09-09T14:22:45;1.73;;;1.00;;
1336;SDS011;662;48.814;9.318;2022-09-09T14:25:11;1.90;;;0.80;;
1336;SDS011;662;48.814;9.318;2022-09-09T14:27:40;1.27;;;0.60;;
1336;SDS011;662;48.814;9.318;2022-09-09T14:30:07;2.00;;;0.80;;
1336;SDS011;662;48.814;9.318;2022-09-09T14:32:33;2.00;;;0.73;;
1336;SDS011;662;48.814;9.318;2022-09-09T14:34:59;1.90;;;0.83;;
1336;SDS011;662;48.814;9.318;2022-09-09T14:37:25;1.53;;;0.60;;
1336;SDS011;662;48.814;9.318;2022-09-09T14:39:52;1.30;;;0.70;;
1336;SDS011;662;48.814;9.318;2022-09-09T14:42:18;1.17;;;0.80;;
1336;SDS011;662;48.814;9.318;2022-09-09T14:44:48;1.90;;;0.70;;
1336;SDS011;662;48.814;9.318;2022-09-09T14:47:14;2.43;;;0.90;;
1336;SDS011;662;48.814;9.318;2022-09-09T14:49:39;3.17;;;0.93;;
1336;SDS011;662;48.814;9.318;2022-09-09T14:52:08;3.27;;;0.60;;
1336;SDS011;662;48.814;9.318;2022-09-09T14:54:34;0.70;;;0.60;;
1336;SDS011;662;48.814;9.318;2022-09-09T14:57:00;1.57;;;0.70;;
1336;SDS011;662;48.814;9.318;2022-09-09T14:59:25;4.43;;;0.80;;
1336;SDS011;662;48.814;9.318;2022-09-09T15:01:51;2.00;;;0.70;;
1336;SDS011;662;48.814;9.318;2022-09-09T15:04:17;1.40;;;0.60;;
1336;SDS011;662;48.814;9.318;2022-09-09T15:06:44;1.07;;;0.70;;
1336;SDS011;662;48.814;9.318;2022-09-09T15:09:13;2.70;;;0.67;;
1336;SDS011;662;48.814;9.318;2022-09-09T15:11:39;1.50;;;0.60;;
1336;SDS011;662;48.814;9.318;2022-09-09T15:14:05;1.57;;;0.57;;
1336;SDS011;662;48.814;9.318;2022-09-09T15:16:33;0.77;;;0.60;;
1336;SDS011;662;48.814;9.318;2022-09-09T15:18:59;1.20;;;0.80;;
1336;SDS011;662;48.814;9.318;2022-09-09T15:21:27;1.00;;;0.90;;
1336;SDS011;662;48.814;9.318;2022-09-09T15:23:55;1.23;;;0.50;;
1336;SDS011;662;48.814;9.318;2022-09-09T15:26:21;2.10;;;0.67;;
1336;SDS011;662;48.814;9.318;2022-09-09T15:28:48;3.43;;;0.70;;
1336;SDS011;662;48.814;9.318;2022-09-09T15:31:17;2.80;;;0.60;;
1336;SDS011;662;48.814;9.318;2022-09-09T15:33:53;1.23;;;0.50;;
1336;SDS011;662;48.814;9.318;2022-09-09T15:36:47;2.50;;;0.50;;
1336;SDS011;662;48.814;9.318;2022-09-09T15:39:13;1.67;;;0.67;;
1336;SDS011;662;48.814;9.318;2022-09-09T15:41:41;1.17;;;0.60;;
1336;SDS011;662;48.814;9.318;2022-09-09T15:44:07;1.23;;;0.60;;
1336;SDS011;662;48.814;9.318;2022-09-09T15:46:39;1.93;;;0.80;;
1336;SDS011;662;48.814;9.318;2022-09-09T15:49:20;1.80;;;0.70;;
1336;SDS011;662;48.814;9.318;2022-09-09T15:52:06;1.90;;;0.73;;
1336;SDS011;662;48.814;9.318;2022-09-09T15:54:32;4.00;;;1.00;;
1336;SDS011;662;48.814;9.318;2022-09-09T15:57:00;3.33;;;1.07;;
1336;SDS011;662;48.814;9.318;2022-09-09T15:59:29;1.07;;;0.60;;
1336;SDS011;662;48.814;9.318;2022-09-09T16:01:59;4.47;;;1.03;;
1336;SDS011;662;48.814;9.318;2022-09-09T16:04:28;2.30;;;0.90;;
1336;SDS011;662;48.814;9.318;2022-09-09T16:07:04;2.20;;;1.00;;
1336;SDS011;662;48.814;9.318;2022-09-09T16:09:31;1.60;;;0.90;;
1336;SDS011;662;48.814;9.318;2022-09-09T16:11:59;1.93;;;1.33;;
1336;SDS011;662;48.814;9.318;2022-09-09T16:14:31;2.20;;;0.70;;
1336;SDS011;662;48.814;9.318;2022-09-09T16:16:59;2.63;;;0.80;;
1336;SDS011;662;48.814;9.318;2022-09-09T16:19:25;1.87;;;1.10;;
1336;SDS011;662;48.814;9.318;2022-09-09T16:21:51;2.77;;;0.93;;
1336;SDS011;662;48.814;9.318;2022-09-09T16:24:18;2.00;;;0.70;;
1336;SDS011;662;48.814;9.318;2022-09-09T16:26:48;1.83;;;0.80;;
1336;SDS011;662;48.814;9.318;2022-09-09T16:29:16;2.70;;;1.10;;
1336;SDS011;662;48.814;9.318;2022-09-09T16:31:43;2.27;;;0.87;;
1336;SDS011;662;48.814;9.318;2022-09-09T16:34:10;2.63;;;0.97;;
1336;SDS011;662;48.814;9.318;2022-09-09T16:36:37;2.10;;;0.70;;
1336;SDS011;662;48.814;9.318;2022-09-09T16:39:05;1.67;;;1.23;;
1336;SDS011;662;48.814;9.318;2022-09-09T16:41:33;2.20;;;0.97;;
1336;SDS011;662;48.814;9.318;2022-09-09T16:44:00;2.67;;;0.63;;
1336;SDS011;662;48.814;9.318;2022-09-09T16:46:31;2.57;;;1.23;;
1336;SDS011;662;48.814;9.318;2022-09-09T16:49:05;1.40;;;0.60;;
1336;SDS011;662;48.814;9.318;2022-09-09T16:51:33;1.50;;;0.80;;
1336;SDS011;662;48.814;9.318;2022-09-09T16:54:05;1.03;;;0.57;;
1336;SDS011;662;48.814;9.318;2022-09-09T16:56:33;1.43;;;0.77;;
1336;SDS011;662;48.814;9.318;2022-09-09T16:59:03;0.70;;;0.60;;
1336;SDS011;662;48.814;9.318;2022-09-09T17:01:34;1.57;;;0.80;;
1336;SDS011;662;48.814;9.318;2022-09-09T17:04:03;0.93;;;0.50;;
1336;SDS011;662;48.814;9.318;2022-09-09T17:06:30;0.67;;;0.50;;
1336;SDS011;662;48.814;9.318;2022-09-09T17:09:03;1.37;;;0.90;;
1336;SDS011;662;48.814;9.318;2022-09-09T17:11:33;0.97;;;0.60;;
1336;SDS011;662;48.814;9.318;2022-09-09T17:13:59;1.00;;;0.50;;
1336;SDS011;662;48.814;9.318;2022-09-09T17:16:26;0.80;;;0.70;;
1336;SDS011;662;48.814;9.318;2022-09-09T17:18:54;1.43;;;0.50;;
1336;SDS011;662;48.814;9.318;2022-09-09T17:21:23;2.17;;;0.90;;
1336;SDS011;662;48.814;9.318;2022-09-09T17:23:50;0.60;;;0.57;;
1336;SDS011;662;48.814;9.318;2022-09-09T17:26:17;0.50;;;0.50;;
1336;SDS011;662;48.814;9.318;2022-09-09T17:28:46;2.67;;;0.50;;
1336;SDS011;662;48.814;9.318;2022-09-09T17:31:13;2.67;;;0.70;;
1336;SDS011;662;48.814;9.318;2022-09-09T17:33:41;1.23;;;0.70;;
1336;SDS011;662;48.814;9.318;2022-09-09T17:38:50;0.97;;;0.60;;
1336;SDS011;662;48.814;9.318;2022-09-09T17:41:27;1.80;;;0.93;;
1336;SDS011;662;48.814;9.318;2022-09-09T17:43:54;1.53;;;1.00;;
1336;SDS011;662;48.814;9.318;2022-09-09T17:46:22;1.50;;;0.80;;
1336;SDS011;662;48.814;9.318;2022-09-09T17:48:51;1.10;;;0.77;;
1336;SDS011;662;48.814;9.318;2022-09-09T17:51:20;0.80;;;0.60;;
1336;SDS011;662;48.814;9.318;2022-09-09T17:53:53;3.10;;;0.87;;
1336;SDS011;662;48.814;9.318;2022-09-09T17:56:20;0.80;;;0.60;;
1336;SDS011;662;48.814;9.318;2022-09-09T17:58:47;0.90;;;0.70;;
1336;SDS011;662;48.814;9.318;2022-09-09T18:01:19;1.57;;;0.67;;